DLH1713 LATI-EDDF
Flight info
| Callsign | DLH1713 |
|---|---|
| Flight time | N/A |
| Altitude | 36000 |
| Route | INLOT DCT RETRA DCT POD DCT GACMO DCT TEBLI DCT PODET DCT SIMBA DCT AKINI T161 DEBHI DEBHI1D |
| Aircraft | A321/M-SDE3FGHIRWY/LB1 |
Departure
| Time | 2026-04-29 20:34 |
|---|---|
| Airport | Tirana International Airport Mother Teresa (LATI) |
Arrival
| Time | N/A |
|---|---|
| Airport | Frankfurt Main Airport (EDDF) |
| Time | Latitude | Longitude | Altitude | Speed | Heading |
|---|---|---|---|---|---|
| 2026-04-29 20:12 | 41.42030 | 19.71509 | 115 ft | 0 kts | 265° |
| 2026-04-29 20:26 | 41.42030 | 19.71519 | 114 ft | 4 kts | 265° |
| 2026-04-29 20:26 | 41.42031 | 19.71549 | 115 ft | 4 kts | 287° |
| 2026-04-29 20:27 | 41.42017 | 19.71571 | 114 ft | 4 kts | 348° |
| 2026-04-29 20:27 | 41.42002 | 19.71574 | 115 ft | 1 kts | 354° |
| 2026-04-29 20:27 | 41.42000 | 19.71575 | 115 ft | 0 kts | 354° |
| 2026-04-29 20:29 | 41.42001 | 19.71574 | 115 ft | 1 kts | 354° |
| 2026-04-29 20:29 | 41.42012 | 19.71573 | 115 ft | 2 kts | 354° |
| 2026-04-29 20:29 | 41.42027 | 19.71571 | 116 ft | 2 kts | 354° |
| 2026-04-29 20:29 | 41.42037 | 19.71569 | 116 ft | 1 kts | 353° |
| 2026-04-29 20:30 | 41.42040 | 19.71569 | 116 ft | 0 kts | 353° |
| 2026-04-29 20:30 | 41.42041 | 19.71569 | 116 ft | 0 kts | 353° |
| 2026-04-29 20:31 | 41.42046 | 19.71568 | 117 ft | 4 kts | 353° |
| 2026-04-29 20:31 | 41.42098 | 19.71557 | 117 ft | 9 kts | 350° |
| 2026-04-29 20:31 | 41.42170 | 19.71547 | 114 ft | 11 kts | 357° |
| 2026-04-29 20:32 | 41.42255 | 19.71539 | 114 ft | 13 kts | 355° |
| 2026-04-29 20:32 | 41.42354 | 19.71527 | 114 ft | 15 kts | 353° |
| 2026-04-29 20:32 | 41.42467 | 19.71510 | 116 ft | 17 kts | 354° |
| 2026-04-29 20:32 | 41.42582 | 19.71494 | 115 ft | 18 kts | 354° |
| 2026-04-29 20:33 | 41.42676 | 19.71519 | 113 ft | 14 kts | 58° |
| 2026-04-29 20:33 | 41.42679 | 19.71651 | 114 ft | 15 kts | 88° |
| 2026-04-29 20:33 | 41.42688 | 19.71798 | 115 ft | 16 kts | 84° |
| 2026-04-29 20:33 | 41.42648 | 19.71903 | 114 ft | 15 kts | 178° |
| 2026-04-29 20:34 | 41.42380 | 19.71938 | 116 ft | 76 kts | 174° |
| 2026-04-29 20:34 | 41.41615 | 19.72038 | 118 ft | 142 kts | 174° |
| 2026-04-29 20:34 | 41.40482 | 19.72186 | 365 ft | 173 kts | 174° |
| 2026-04-29 20:34 | 41.39280 | 19.72348 | 1118 ft | 172 kts | 175° |
| 2026-04-29 20:35 | 41.38066 | 19.72500 | 1653 ft | 184 kts | 175° |
| 2026-04-29 20:35 | 41.36734 | 19.72674 | 2038 ft | 200 kts | 175° |
| 2026-04-29 20:35 | 41.35312 | 19.72859 | 2467 ft | 214 kts | 175° |
| 2026-04-29 20:35 | 41.33738 | 19.73061 | 2749 ft | 240 kts | 175° |
| 2026-04-29 20:36 | 41.32002 | 19.73286 | 3201 ft | 258 kts | 174° |
| 2026-04-29 20:36 | 41.30183 | 19.73528 | 3831 ft | 269 kts | 175° |
| 2026-04-29 20:36 | 41.28312 | 19.73768 | 4679 ft | 268 kts | 175° |
| 2026-04-29 20:36 | 41.26474 | 19.74000 | 5517 ft | 269 kts | 177° |
| 2026-04-29 20:37 | 41.24642 | 19.73484 | 6181 ft | 274 kts | 211° |
| 2026-04-29 20:37 | 41.23340 | 19.71674 | 6900 ft | 276 kts | 245° |
| 2026-04-29 20:37 | 41.23034 | 19.69180 | 7633 ft | 278 kts | 279° |
| 2026-04-29 20:37 | 41.23822 | 19.66863 | 8345 ft | 281 kts | 312° |
| 2026-04-29 20:38 | 41.25460 | 19.65462 | 8997 ft | 286 kts | 344° |
| 2026-04-29 20:38 | 41.27426 | 19.65052 | 9728 ft | 288 kts | 354° |
| 2026-04-29 20:38 | 41.29463 | 19.64810 | 10218 ft | 301 kts | 354° |
| 2026-04-29 20:38 | 41.31622 | 19.64517 | 10383 ft | 324 kts | 353° |
| 2026-04-29 20:39 | 41.33901 | 19.64099 | 10528 ft | 344 kts | 351° |
| 2026-04-29 20:39 | 41.36332 | 19.63530 | 10994 ft | 353 kts | 349° |
| 2026-04-29 20:39 | 41.38751 | 19.62875 | 11613 ft | 357 kts | 347° |
| 2026-04-29 20:39 | 41.41185 | 19.62161 | 12232 ft | 360 kts | 347° |
| 2026-04-29 20:40 | 41.43638 | 19.61417 | 12840 ft | 363 kts | 347° |
| 2026-04-29 20:40 | 41.46086 | 19.60671 | 13431 ft | 367 kts | 347° |
| 2026-04-29 20:40 | 41.48587 | 19.59915 | 14024 ft | 370 kts | 347° |
| 2026-04-29 20:40 | 41.51110 | 19.59160 | 14611 ft | 373 kts | 347° |
| 2026-04-29 20:41 | 41.53659 | 19.58407 | 15177 ft | 376 kts | 347° |
| 2026-04-29 20:41 | 41.56228 | 19.57653 | 15729 ft | 379 kts | 347° |
| 2026-04-29 20:41 | 41.58815 | 19.56897 | 16287 ft | 382 kts | 347° |
| 2026-04-29 20:41 | 41.61420 | 19.56136 | 16828 ft | 384 kts | 347° |
| 2026-04-29 20:42 | 41.64049 | 19.55368 | 17350 ft | 387 kts | 347° |
| 2026-04-29 20:42 | 41.66689 | 19.54592 | 17849 ft | 390 kts | 347° |
| 2026-04-29 20:42 | 41.69352 | 19.53803 | 18331 ft | 393 kts | 347° |
| 2026-04-29 20:42 | 41.72037 | 19.53007 | 18796 ft | 396 kts | 347° |
| 2026-04-29 20:43 | 41.74734 | 19.52207 | 19259 ft | 399 kts | 347° |
| 2026-04-29 20:43 | 41.77454 | 19.51401 | 19714 ft | 401 kts | 347° |
| 2026-04-29 20:43 | 41.80190 | 19.50590 | 20161 ft | 404 kts | 347° |
| 2026-04-29 20:43 | 41.82943 | 19.49776 | 20595 ft | 407 kts | 347° |
| 2026-04-29 20:44 | 41.85715 | 19.48955 | 21020 ft | 409 kts | 347° |
| 2026-04-29 20:44 | 41.88505 | 19.48127 | 21397 ft | 413 kts | 347° |
| 2026-04-29 20:44 | 41.91318 | 19.47291 | 21818 ft | 415 kts | 347° |
| 2026-04-29 20:44 | 41.94146 | 19.46448 | 22247 ft | 417 kts | 347° |
| 2026-04-29 20:45 | 41.96984 | 19.45599 | 22650 ft | 419 kts | 346° |
| 2026-04-29 20:45 | 41.99777 | 19.44453 | 23031 ft | 421 kts | 340° |
| 2026-04-29 20:45 | 42.02551 | 19.43135 | 23409 ft | 424 kts | 340° |
| 2026-04-29 20:45 | 42.05340 | 19.41816 | 23774 ft | 427 kts | 340° |
| 2026-04-29 20:46 | 42.08149 | 19.40488 | 24122 ft | 429 kts | 340° |
| 2026-04-29 20:46 | 42.10972 | 19.39150 | 24515 ft | 431 kts | 340° |
| 2026-04-29 20:46 | 42.13810 | 19.37802 | 24867 ft | 433 kts | 340° |
| 2026-04-29 20:46 | 42.16658 | 19.36446 | 25211 ft | 435 kts | 340° |
| 2026-04-29 20:47 | 42.19523 | 19.35077 | 25554 ft | 438 kts | 340° |
| 2026-04-29 20:47 | 42.22399 | 19.33703 | 25883 ft | 440 kts | 340° |
| 2026-04-29 20:47 | 42.24309 | 19.32784 | 26103 ft | 441 kts | 340° |
| 2026-04-29 20:47 | 42.27201 | 19.31350 | 26411 ft | 443 kts | 339° |
| 2026-04-29 20:48 | 42.30095 | 19.29877 | 26738 ft | 446 kts | 339° |
| 2026-04-29 20:48 | 42.32995 | 19.28377 | 27056 ft | 448 kts | 339° |
| 2026-04-29 20:48 | 42.35909 | 19.26863 | 27357 ft | 450 kts | 339° |
| 2026-04-29 20:48 | 42.38776 | 19.25149 | 27653 ft | 452 kts | 331° |
| 2026-04-29 20:49 | 42.41446 | 19.22903 | 27926 ft | 453 kts | 326° |
| 2026-04-29 20:49 | 42.44068 | 19.20504 | 28205 ft | 455 kts | 326° |
| 2026-04-29 20:49 | 42.46702 | 19.18108 | 28468 ft | 457 kts | 326° |
| 2026-04-29 20:49 | 42.49346 | 19.15708 | 28724 ft | 459 kts | 326° |
| 2026-04-29 20:50 | 42.52006 | 19.13289 | 28965 ft | 461 kts | 326° |
| 2026-04-29 20:50 | 42.54667 | 19.10866 | 29182 ft | 462 kts | 326° |
| 2026-04-29 20:50 | 42.57342 | 19.08424 | 29414 ft | 463 kts | 326° |
| 2026-04-29 20:50 | 42.60012 | 19.05984 | 29712 ft | 463 kts | 326° |
| 2026-04-29 20:51 | 42.62680 | 19.03546 | 30024 ft | 462 kts | 326° |
| 2026-04-29 20:51 | 42.65346 | 19.01108 | 30322 ft | 461 kts | 326° |
| 2026-04-29 20:51 | 42.68006 | 18.98668 | 30604 ft | 461 kts | 326° |
| 2026-04-29 20:51 | 42.70653 | 18.96236 | 30849 ft | 462 kts | 326° |
| 2026-04-29 20:52 | 42.73324 | 18.93782 | 31076 ft | 463 kts | 326° |
| 2026-04-29 20:52 | 42.75991 | 18.91328 | 31329 ft | 463 kts | 326° |
| 2026-04-29 20:52 | 42.78655 | 18.88870 | 31599 ft | 462 kts | 326° |
| 2026-04-29 20:52 | 42.81314 | 18.86415 | 31864 ft | 462 kts | 326° |
| 2026-04-29 20:53 | 42.83975 | 18.83955 | 32081 ft | 463 kts | 326° |
| 2026-04-29 20:53 | 42.86645 | 18.81489 | 32274 ft | 464 kts | 326° |
| 2026-04-29 20:53 | 42.89316 | 18.79023 | 32502 ft | 464 kts | 326° |
| 2026-04-29 20:53 | 42.91985 | 18.76554 | 32781 ft | 463 kts | 326° |
| 2026-04-29 20:54 | 42.97311 | 18.71625 | 33269 ft | 462 kts | 326° |
| 2026-04-29 20:54 | 42.99971 | 18.69162 | 33529 ft | 461 kts | 326° |
| 2026-04-29 20:54 | 43.02622 | 18.66704 | 33782 ft | 460 kts | 326° |
| 2026-04-29 20:55 | 43.05263 | 18.64246 | 34026 ft | 459 kts | 325° |
| 2026-04-29 20:55 | 43.07902 | 18.61784 | 34273 ft | 459 kts | 325° |
| 2026-04-29 20:55 | 43.10540 | 18.59316 | 34501 ft | 459 kts | 325° |
| 2026-04-29 20:55 | 43.13172 | 18.56853 | 34738 ft | 458 kts | 325° |
| 2026-04-29 20:56 | 43.15803 | 18.54403 | 34958 ft | 458 kts | 326° |
| 2026-04-29 20:56 | 43.18462 | 18.52005 | 35175 ft | 457 kts | 327° |
| 2026-04-29 20:56 | 43.21145 | 18.49656 | 35381 ft | 458 kts | 327° |
| 2026-04-29 20:56 | 43.23843 | 18.47329 | 35584 ft | 458 kts | 328° |
| 2026-04-29 20:57 | 43.26537 | 18.45009 | 35782 ft | 458 kts | 327° |
| 2026-04-29 20:57 | 43.29232 | 18.42671 | 35956 ft | 458 kts | 327° |
| 2026-04-29 20:57 | 43.31920 | 18.40316 | 36011 ft | 458 kts | 327° |
| 2026-04-29 20:58 | 43.37308 | 18.35556 | 36010 ft | 456 kts | 327° |
| 2026-04-29 20:58 | 43.42588 | 18.30867 | 36010 ft | 455 kts | 327° |
| 2026-04-29 20:59 | 43.47935 | 18.26104 | 36010 ft | 455 kts | 327° |
| 2026-04-29 20:59 | 43.53216 | 18.21409 | 36011 ft | 455 kts | 327° |
| 2026-04-29 21:00 | 43.58585 | 18.16639 | 36000 ft | 457 kts | 327° |
| 2026-04-29 21:00 | 43.63895 | 18.11893 | 36013 ft | 458 kts | 327° |
| 2026-04-29 21:01 | 43.69281 | 18.07077 | 36015 ft | 458 kts | 327° |
| 2026-04-29 21:01 | 43.74606 | 18.02310 | 36024 ft | 459 kts | 327° |
| 2026-04-29 21:02 | 43.79952 | 17.97501 | 36025 ft | 459 kts | 327° |
| 2026-04-29 21:02 | 43.85310 | 17.92657 | 36027 ft | 459 kts | 327° |
| 2026-04-29 21:03 | 43.90667 | 17.87827 | 36029 ft | 459 kts | 327° |
| 2026-04-29 21:03 | 43.96024 | 17.82985 | 36025 ft | 459 kts | 327° |
| 2026-04-29 21:04 | 44.01371 | 17.78135 | 36032 ft | 459 kts | 327° |
| 2026-04-29 21:04 | 44.06720 | 17.73266 | 36027 ft | 459 kts | 326° |
| 2026-04-29 21:05 | 44.12062 | 17.68393 | 36031 ft | 459 kts | 326° |
| 2026-04-29 21:05 | 44.17401 | 17.63534 | 36037 ft | 458 kts | 326° |
| 2026-04-29 21:06 | 44.21930 | 17.59397 | 36033 ft | 458 kts | 326° |
| 2026-04-29 21:06 | 44.27158 | 17.54609 | 36036 ft | 457 kts | 326° |
| 2026-04-29 21:07 | 44.32480 | 17.49718 | 36025 ft | 458 kts | 326° |
| 2026-04-29 21:07 | 44.37797 | 17.44820 | 36028 ft | 458 kts | 326° |
| 2026-04-29 21:08 | 44.43119 | 17.39907 | 36037 ft | 458 kts | 326° |
| 2026-04-29 21:08 | 44.48422 | 17.35003 | 36034 ft | 457 kts | 326° |
| 2026-04-29 21:09 | 44.53718 | 17.30097 | 36034 ft | 456 kts | 326° |
| 2026-04-29 21:09 | 44.59011 | 17.25182 | 36033 ft | 456 kts | 326° |
| 2026-04-29 21:10 | 44.64293 | 17.20264 | 36032 ft | 456 kts | 326° |
| 2026-04-29 21:10 | 44.69579 | 17.15324 | 36036 ft | 455 kts | 326° |
| 2026-04-29 21:11 | 44.74864 | 17.10385 | 36035 ft | 455 kts | 326° |
| 2026-04-29 21:11 | 44.80129 | 17.05456 | 36036 ft | 454 kts | 326° |
| 2026-04-29 21:12 | 44.85388 | 17.00527 | 36036 ft | 454 kts | 326° |
| 2026-04-29 21:12 | 44.90635 | 16.95587 | 36050 ft | 453 kts | 326° |
| 2026-04-29 21:13 | 44.95877 | 16.90640 | 36035 ft | 453 kts | 326° |
| 2026-04-29 21:13 | 45.01120 | 16.85682 | 36032 ft | 454 kts | 326° |
| 2026-04-29 21:14 | 45.06375 | 16.80707 | 36032 ft | 454 kts | 326° |
| 2026-04-29 21:14 | 45.11626 | 16.75726 | 36037 ft | 454 kts | 326° |
| 2026-04-29 21:15 | 45.16863 | 16.70743 | 36036 ft | 453 kts | 326° |
| 2026-04-29 21:15 | 45.22072 | 16.65703 | 36035 ft | 452 kts | 324° |
| 2026-04-29 21:16 | 45.27121 | 16.60381 | 36035 ft | 452 kts | 322° |
| 2026-04-29 21:16 | 45.32115 | 16.54946 | 36035 ft | 452 kts | 322° |
| 2026-04-29 21:17 | 45.36314 | 16.50417 | 36035 ft | 452 kts | 323° |
| 2026-04-29 21:17 | 45.41341 | 16.45051 | 36033 ft | 451 kts | 323° |
| 2026-04-29 21:18 | 45.46367 | 16.39686 | 36032 ft | 451 kts | 323° |
| 2026-04-29 21:18 | 45.50309 | 16.35467 | 36030 ft | 451 kts | 323° |
| 2026-04-29 21:19 | 45.54718 | 16.30775 | 36029 ft | 450 kts | 323° |
| 2026-04-29 21:19 | 45.59752 | 16.25354 | 36028 ft | 451 kts | 322° |
| 2026-04-29 21:20 | 45.64751 | 16.19944 | 36030 ft | 451 kts | 322° |
| 2026-04-29 21:20 | 45.69757 | 16.14531 | 36029 ft | 451 kts | 322° |
| 2026-04-29 21:21 | 45.74759 | 16.09118 | 36030 ft | 451 kts | 322° |
| 2026-04-29 21:21 | 45.79725 | 16.03726 | 36030 ft | 451 kts | 322° |
| 2026-04-29 21:22 | 45.84719 | 15.98285 | 36030 ft | 451 kts | 322° |
| 2026-04-29 21:22 | 45.89727 | 15.92817 | 36022 ft | 452 kts | 322° |
| 2026-04-29 21:23 | 45.94747 | 15.87334 | 36028 ft | 452 kts | 322° |
| 2026-04-29 21:23 | 45.99748 | 15.81847 | 36032 ft | 452 kts | 322° |
| 2026-04-29 21:24 | 46.04739 | 15.76356 | 36032 ft | 452 kts | 322° |
| 2026-04-29 21:24 | 46.09742 | 15.70855 | 36031 ft | 452 kts | 322° |
| 2026-04-29 21:25 | 46.14731 | 15.65348 | 36032 ft | 452 kts | 322° |
| 2026-04-29 21:25 | 46.18854 | 15.60729 | 36029 ft | 451 kts | 321° |
| 2026-04-29 21:26 | 46.23686 | 15.54948 | 36028 ft | 451 kts | 319° |
| 2026-04-29 21:26 | 46.28465 | 15.49060 | 36027 ft | 451 kts | 319° |
| 2026-04-29 21:27 | 46.33263 | 15.43197 | 36024 ft | 451 kts | 320° |
| 2026-04-29 21:27 | 46.38082 | 15.37351 | 36026 ft | 452 kts | 320° |
| 2026-04-29 21:28 | 46.42905 | 15.31495 | 36016 ft | 453 kts | 320° |
| 2026-04-29 21:28 | 46.47730 | 15.25612 | 36003 ft | 454 kts | 320° |
| 2026-04-29 21:29 | 46.52569 | 15.19696 | 36004 ft | 455 kts | 320° |
| 2026-04-29 21:29 | 46.55752 | 15.15793 | 35994 ft | 456 kts | 320° |
| 2026-04-29 21:30 | 46.57041 | 15.14230 | 35935 ft | 451 kts | 320° |
| 2026-04-29 21:30 | 46.57614 | 15.13580 | 35934 ft | 447 kts | 315° |
| 2026-04-29 21:30 | 46.59308 | 15.11857 | 35482 ft | 450 kts | 331° |
| 2026-04-29 21:31 | 46.61945 | 15.09462 | 35405 ft | 443 kts | 323° |
| 2026-04-29 21:31 | 46.64325 | 15.06601 | 35604 ft | 444 kts | 317° |
| 2026-04-29 21:31 | 46.66553 | 15.03465 | 35801 ft | 446 kts | 314° |
| 2026-04-29 21:31 | 46.68743 | 15.00255 | 35996 ft | 447 kts | 315° |
| 2026-04-29 21:32 | 46.70985 | 14.97071 | 36011 ft | 452 kts | 316° |
| 2026-04-29 21:32 | 46.75693 | 14.90948 | 36008 ft | 453 kts | 320° |
| 2026-04-29 21:33 | 46.80540 | 14.85077 | 36007 ft | 452 kts | 320° |
| 2026-04-29 21:33 | 46.85382 | 14.79211 | 36009 ft | 452 kts | 320° |
| 2026-04-29 21:34 | 46.90145 | 14.73297 | 36009 ft | 453 kts | 319° |
| 2026-04-29 21:34 | 46.94935 | 14.67281 | 35998 ft | 455 kts | 319° |
| 2026-04-29 21:35 | 46.99749 | 14.61224 | 35994 ft | 457 kts | 319° |
| 2026-04-29 21:35 | 47.04588 | 14.55144 | 35999 ft | 459 kts | 319° |
| 2026-04-29 21:36 | 47.09444 | 14.49042 | 36012 ft | 460 kts | 319° |
| 2026-04-29 21:36 | 47.14298 | 14.42931 | 36033 ft | 459 kts | 319° |
| 2026-04-29 21:37 | 47.18186 | 14.38006 | 35999 ft | 452 kts | 319° |
| 2026-04-29 21:37 | 47.22852 | 14.32090 | 36009 ft | 433 kts | 319° |
| 2026-04-29 21:38 | 47.27318 | 14.26412 | 36006 ft | 416 kts | 319° |
| 2026-04-29 21:38 | 47.31604 | 14.20959 | 36017 ft | 401 kts | 319° |
| 2026-04-29 21:39 | 47.35890 | 14.15502 | 36010 ft | 413 kts | 319° |
| 2026-04-29 21:39 | 47.40289 | 14.09873 | 36008 ft | 424 kts | 319° |
| 2026-04-29 21:40 | 47.44811 | 14.04072 | 36012 ft | 436 kts | 319° |
| 2026-04-29 21:40 | 47.49460 | 13.98100 | 36009 ft | 448 kts | 319° |
| 2026-04-29 21:41 | 47.54200 | 13.91994 | 36009 ft | 454 kts | 319° |
| 2026-04-29 21:41 | 47.58965 | 13.85838 | 36007 ft | 455 kts | 319° |
| 2026-04-29 21:42 | 47.63738 | 13.79668 | 36010 ft | 454 kts | 319° |
| 2026-04-29 21:42 | 47.68498 | 13.73494 | 36014 ft | 456 kts | 319° |
| 2026-04-29 21:43 | 47.73271 | 13.67283 | 36020 ft | 456 kts | 318° |
| 2026-04-29 21:43 | 47.78040 | 13.61054 | 36033 ft | 456 kts | 318° |
| 2026-04-29 21:44 | 47.82803 | 13.54828 | 36033 ft | 456 kts | 318° |
| 2026-04-29 21:44 | 47.87552 | 13.48600 | 36034 ft | 455 kts | 318° |
| 2026-04-29 21:45 | 47.92299 | 13.42361 | 36035 ft | 455 kts | 318° |
| 2026-04-29 21:45 | 47.97035 | 13.36122 | 36034 ft | 454 kts | 318° |
| 2026-04-29 21:46 | 48.01764 | 13.29873 | 36033 ft | 454 kts | 318° |
| 2026-04-29 21:46 | 48.06489 | 13.23611 | 36033 ft | 454 kts | 318° |
| 2026-04-29 21:47 | 48.11209 | 13.17341 | 36034 ft | 453 kts | 318° |
| 2026-04-29 21:47 | 48.15917 | 13.11068 | 36035 ft | 453 kts | 318° |
| 2026-04-29 21:48 | 48.20623 | 13.04783 | 36033 ft | 453 kts | 318° |
| 2026-04-29 21:48 | 48.25073 | 12.98131 | 36033 ft | 452 kts | 311° |
| 2026-04-29 21:49 | 48.29244 | 12.91074 | 36030 ft | 452 kts | 311° |
| 2026-04-29 21:49 | 48.33406 | 12.84001 | 36029 ft | 452 kts | 311° |
| 2026-04-29 21:50 | 48.37567 | 12.76912 | 36028 ft | 452 kts | 311° |
| 2026-04-29 21:50 | 48.41731 | 12.69818 | 36030 ft | 452 kts | 311° |
| 2026-04-29 21:51 | 48.45887 | 12.62711 | 36029 ft | 452 kts | 311° |
| 2026-04-29 21:51 | 48.52116 | 12.52037 | 36029 ft | 452 kts | 311° |
| 2026-04-29 21:52 | 48.56259 | 12.44895 | 36030 ft | 452 kts | 311° |
| 2026-04-29 21:52 | 48.60397 | 12.37740 | 36030 ft | 452 kts | 311° |
| 2026-04-29 21:53 | 48.64531 | 12.30572 | 36031 ft | 452 kts | 311° |
| 2026-04-29 21:53 | 48.68665 | 12.23399 | 36030 ft | 452 kts | 311° |
| 2026-04-29 21:54 | 48.72709 | 12.16106 | 36029 ft | 452 kts | 304° |
| 2026-04-29 21:54 | 48.75375 | 12.07539 | 36029 ft | 451 kts | 285° |
| 2026-04-29 21:55 | 48.76514 | 11.98193 | 36028 ft | 451 kts | 279° |
| 2026-04-29 21:55 | 48.77527 | 11.88811 | 36028 ft | 451 kts | 279° |
| 2026-04-29 21:56 | 48.78538 | 11.79426 | 36028 ft | 451 kts | 279° |
| 2026-04-29 21:56 | 48.79528 | 11.70028 | 36030 ft | 451 kts | 279° |
| 2026-04-29 21:57 | 48.80508 | 11.60631 | 36029 ft | 451 kts | 279° |
| 2026-04-29 21:57 | 48.81488 | 11.51223 | 36028 ft | 451 kts | 279° |
| 2026-04-29 21:58 | 48.82454 | 11.41812 | 36027 ft | 451 kts | 278° |
| 2026-04-29 21:58 | 48.83414 | 11.32388 | 36029 ft | 451 kts | 278° |
| 2026-04-29 21:59 | 48.85228 | 11.23380 | 36026 ft | 451 kts | 297° |
| 2026-04-29 21:59 | 48.88929 | 11.15743 | 36024 ft | 451 kts | 316° |
| 2026-04-29 22:00 | 48.93593 | 11.09253 | 36024 ft | 452 kts | 317° |
| 2026-04-29 22:00 | 48.98205 | 11.02810 | 36015 ft | 453 kts | 317° |
| 2026-04-29 22:01 | 49.00531 | 10.99549 | 35759 ft | 452 kts | 317° |
| 2026-04-29 22:01 | 49.02843 | 10.96301 | 35277 ft | 453 kts | 317° |
| 2026-04-29 22:01 | 49.05160 | 10.93037 | 34486 ft | 454 kts | 317° |
| 2026-04-29 22:01 | 49.07486 | 10.89761 | 33690 ft | 456 kts | 317° |
| 2026-04-29 22:02 | 49.09823 | 10.86466 | 32770 ft | 460 kts | 317° |
| 2026-04-29 22:02 | 49.12178 | 10.83138 | 31861 ft | 462 kts | 317° |
| 2026-04-29 22:02 | 49.14538 | 10.79795 | 30943 ft | 464 kts | 317° |
| 2026-04-29 22:02 | 49.16908 | 10.76430 | 29917 ft | 467 kts | 317° |
| 2026-04-29 22:03 | 49.18488 | 10.74186 | 29252 ft | 468 kts | 317° |
| 2026-04-29 22:03 | 49.20860 | 10.70766 | 28434 ft | 466 kts | 315° |
| 2026-04-29 22:03 | 49.23147 | 10.67298 | 27854 ft | 458 kts | 314° |
| 2026-04-29 22:03 | 49.25354 | 10.63812 | 27193 ft | 453 kts | 313° |
| 2026-04-29 22:04 | 49.27509 | 10.60333 | 26550 ft | 448 kts | 313° |
| 2026-04-29 22:04 | 49.29636 | 10.56882 | 25898 ft | 442 kts | 313° |
| 2026-04-29 22:04 | 49.32449 | 10.52351 | 25067 ft | 435 kts | 313° |
| 2026-04-29 22:04 | 49.33830 | 10.50142 | 24657 ft | 431 kts | 314° |
| 2026-04-29 22:05 | 49.35868 | 10.46810 | 24152 ft | 426 kts | 310° |
| 2026-04-29 22:05 | 49.37640 | 10.43157 | 23970 ft | 427 kts | 305° |
| 2026-04-29 22:05 | 49.41059 | 10.35702 | 23688 ft | 427 kts | 305° |
| 2026-04-29 22:06 | 49.42764 | 10.31981 | 23434 ft | 425 kts | 305° |
| 2026-04-29 22:06 | 49.44460 | 10.28269 | 23188 ft | 424 kts | 305° |
| 2026-04-29 22:06 | 49.46152 | 10.24557 | 22936 ft | 422 kts | 304° |
| 2026-04-29 22:06 | 49.47825 | 10.20873 | 22689 ft | 420 kts | 304° |
| 2026-04-29 22:07 | 49.49498 | 10.17181 | 22437 ft | 419 kts | 304° |
| 2026-04-29 22:07 | 49.51160 | 10.13503 | 22181 ft | 417 kts | 304° |
| 2026-04-29 22:07 | 49.52807 | 10.09852 | 21934 ft | 415 kts | 304° |
| 2026-04-29 22:07 | 49.54453 | 10.06202 | 21680 ft | 414 kts | 304° |
| 2026-04-29 22:08 | 49.56090 | 10.02569 | 21421 ft | 412 kts | 304° |
| 2026-04-29 22:08 | 49.57705 | 9.98988 | 21186 ft | 410 kts | 304° |
| 2026-04-29 22:08 | 49.59332 | 9.95374 | 20942 ft | 409 kts | 304° |
| 2026-04-29 22:08 | 49.60948 | 9.91784 | 20685 ft | 407 kts | 304° |
| 2026-04-29 22:09 | 49.62536 | 9.88183 | 20429 ft | 405 kts | 301° |
| 2026-04-29 22:09 | 49.63630 | 9.84206 | 20186 ft | 403 kts | 284° |
| 2026-04-29 22:09 | 49.64189 | 9.79967 | 19934 ft | 402 kts | 281° |
| 2026-04-29 22:09 | 49.64714 | 9.75729 | 19683 ft | 401 kts | 281° |
| 2026-04-29 22:10 | 49.65231 | 9.71499 | 19432 ft | 399 kts | 280° |
| 2026-04-29 22:10 | 49.65739 | 9.67296 | 19181 ft | 398 kts | 280° |
| 2026-04-29 22:10 | 49.66242 | 9.63104 | 18932 ft | 396 kts | 280° |
| 2026-04-29 22:10 | 49.66741 | 9.58940 | 18678 ft | 395 kts | 280° |
| 2026-04-29 22:11 | 49.67241 | 9.54784 | 18431 ft | 393 kts | 280° |
| 2026-04-29 22:11 | 49.67739 | 9.50648 | 18056 ft | 389 kts | 280° |
| 2026-04-29 22:11 | 49.68230 | 9.46563 | 17430 ft | 385 kts | 280° |
| 2026-04-29 22:11 | 49.68713 | 9.42507 | 16796 ft | 382 kts | 280° |
| 2026-04-29 22:12 | 49.69188 | 9.38496 | 16167 ft | 378 kts | 280° |
| 2026-04-29 22:12 | 49.69658 | 9.34524 | 15524 ft | 374 kts | 280° |
| 2026-04-29 22:12 | 49.70122 | 9.30589 | 14889 ft | 370 kts | 280° |
| 2026-04-29 22:12 | 49.70579 | 9.26693 | 14252 ft | 367 kts | 280° |
| 2026-04-29 22:13 | 49.71028 | 9.22839 | 13621 ft | 363 kts | 280° |
| 2026-04-29 22:13 | 49.71475 | 9.19013 | 12988 ft | 360 kts | 280° |
| 2026-04-29 22:13 | 49.71906 | 9.15330 | 12359 ft | 357 kts | 280° |
| 2026-04-29 22:13 | 49.72344 | 9.11566 | 11711 ft | 354 kts | 280° |
| 2026-04-29 22:14 | 49.72769 | 9.07888 | 11082 ft | 351 kts | 280° |
| 2026-04-29 22:14 | 49.73195 | 9.04194 | 10449 ft | 347 kts | 280° |
| 2026-04-29 22:14 | 49.73616 | 9.00542 | 10084 ft | 345 kts | 280° |
| 2026-04-29 22:14 | 49.74031 | 8.96915 | 9986 ft | 333 kts | 280° |
| 2026-04-29 22:15 | 49.74423 | 8.93503 | 10012 ft | 311 kts | 280° |
| 2026-04-29 22:15 | 49.74791 | 8.90305 | 10005 ft | 293 kts | 280° |
| 2026-04-29 22:15 | 49.75142 | 8.87235 | 10011 ft | 289 kts | 280° |
| 2026-04-29 22:15 | 49.75488 | 8.84177 | 9994 ft | 289 kts | 280° |
| 2026-04-29 22:16 | 49.75835 | 8.81120 | 9858 ft | 288 kts | 280° |
| 2026-04-29 22:16 | 49.76181 | 8.78065 | 9737 ft | 287 kts | 280° |
| 2026-04-29 22:16 | 49.76524 | 8.75029 | 9603 ft | 287 kts | 279° |
| 2026-04-29 22:16 | 49.76865 | 8.71989 | 9486 ft | 286 kts | 279° |
| 2026-04-29 22:17 | 49.77203 | 8.68957 | 9359 ft | 286 kts | 279° |
| 2026-04-29 22:17 | 49.77543 | 8.65927 | 9233 ft | 285 kts | 279° |
| 2026-04-29 22:17 | 49.77880 | 8.62908 | 9114 ft | 284 kts | 279° |
| 2026-04-29 22:17 | 49.78214 | 8.59898 | 8984 ft | 283 kts | 279° |
| 2026-04-29 22:18 | 49.78547 | 8.56901 | 8859 ft | 283 kts | 279° |
| 2026-04-29 22:18 | 49.78880 | 8.53910 | 8733 ft | 282 kts | 279° |
| 2026-04-29 22:18 | 49.79214 | 8.50906 | 8609 ft | 282 kts | 279° |
| 2026-04-29 22:18 | 49.79543 | 8.47914 | 8486 ft | 281 kts | 279° |
| 2026-04-29 22:19 | 49.79872 | 8.44926 | 8358 ft | 281 kts | 279° |
| 2026-04-29 22:19 | 49.80200 | 8.41953 | 8233 ft | 280 kts | 279° |
| 2026-04-29 22:19 | 49.80525 | 8.39018 | 8108 ft | 280 kts | 279° |
| 2026-04-29 22:19 | 49.80852 | 8.36051 | 7985 ft | 279 kts | 279° |
| 2026-04-29 22:20 | 49.81174 | 8.33111 | 7617 ft | 277 kts | 279° |
| 2026-04-29 22:20 | 49.81494 | 8.30172 | 7219 ft | 275 kts | 279° |
| 2026-04-29 22:20 | 49.81809 | 8.27261 | 6823 ft | 274 kts | 279° |
| 2026-04-29 22:20 | 49.82125 | 8.24333 | 6129 ft | 282 kts | 279° |
| 2026-04-29 22:21 | 49.82452 | 8.21285 | 5160 ft | 288 kts | 279° |
| 2026-04-29 22:21 | 49.82781 | 8.18234 | 4193 ft | 286 kts | 279° |
| 2026-04-29 22:21 | 49.83095 | 8.15299 | 3799 ft | 266 kts | 279° |
| 2026-04-29 22:21 | 49.83395 | 8.12486 | 3669 ft | 263 kts | 279° |
| 2026-04-29 22:22 | 49.83698 | 8.09687 | 3626 ft | 262 kts | 281° |
| 2026-04-29 22:22 | 49.84358 | 8.07082 | 3630 ft | 262 kts | 306° |
| 2026-04-29 22:22 | 49.85705 | 8.05261 | 3637 ft | 252 kts | 332° |
| 2026-04-29 22:22 | 49.87311 | 8.04458 | 3647 ft | 239 kts | 353° |
| 2026-04-29 22:23 | 49.88946 | 8.04627 | 3638 ft | 236 kts | 14° |
| 2026-04-29 22:23 | 49.90423 | 8.05704 | 3631 ft | 235 kts | 36° |
| 2026-04-29 22:23 | 49.91540 | 8.07534 | 3635 ft | 235 kts | 57° |
| 2026-04-29 22:23 | 49.92197 | 8.09816 | 3641 ft | 235 kts | 69° |
| 2026-04-29 22:24 | 49.92783 | 8.12227 | 3640 ft | 242 kts | 69° |
| 2026-04-29 22:24 | 49.93383 | 8.14686 | 3638 ft | 245 kts | 69° |
| 2026-04-29 22:24 | 49.93987 | 8.17161 | 3641 ft | 245 kts | 69° |
| 2026-04-29 22:24 | 49.94591 | 8.19639 | 3640 ft | 245 kts | 69° |
| 2026-04-29 22:25 | 49.95194 | 8.22117 | 3636 ft | 245 kts | 69° |
| 2026-04-29 22:25 | 49.95796 | 8.24592 | 3640 ft | 245 kts | 69° |
| 2026-04-29 22:25 | 49.96398 | 8.27075 | 3636 ft | 245 kts | 69° |
| 2026-04-29 22:25 | 49.96999 | 8.29550 | 3484 ft | 242 kts | 69° |
| 2026-04-29 22:26 | 49.97583 | 8.31961 | 3197 ft | 233 kts | 69° |
| 2026-04-29 22:26 | 49.98124 | 8.34198 | 2909 ft | 208 kts | 69° |
| 2026-04-29 22:26 | 49.98616 | 8.36232 | 2646 ft | 196 kts | 69° |
| 2026-04-29 22:26 | 49.99089 | 8.38188 | 2390 ft | 191 kts | 69° |
| 2026-04-29 22:27 | 49.99555 | 8.40122 | 2140 ft | 190 kts | 69° |
| 2026-04-29 22:27 | 50.00015 | 8.42028 | 1895 ft | 188 kts | 69° |
| 2026-04-29 22:27 | 50.00473 | 8.43929 | 1638 ft | 187 kts | 69° |
| 2026-04-29 22:27 | 50.00911 | 8.45749 | 1385 ft | 170 kts | 69° |
| 2026-04-29 22:28 | 50.01304 | 8.47382 | 1170 ft | 152 kts | 69° |
| 2026-04-29 22:28 | 50.01658 | 8.48873 | 984 ft | 145 kts | 70° |
| 2026-04-29 22:28 | 50.02003 | 8.50316 | 790 ft | 142 kts | 68° |
| 2026-04-29 22:28 | 50.02362 | 8.51757 | 624 ft | 141 kts | 69° |
| 2026-04-29 22:29 | 50.02586 | 8.52697 | 480 ft | 140 kts | 70° |
| 2026-04-29 22:29 | 50.02961 | 8.54307 | 357 ft | 128 kts | 70° |
| 2026-04-29 22:29 | 50.03176 | 8.55157 | 358 ft | 90 kts | 69° |